Nassau, Delaware
Current Conditions -  °F | °C
As of 10:54 AM on Friday 24 Oct 2014 (Local Time) from KGED Reporting Station
Broken Clouds Broken Clouds  
Wind Chill: 61°   Ceiling: 3800
Heat Index: 61°   Visibility: 10mi
Dew Point: 45°   Wind: 9mph
Humidity: 56%   Direction: 330°NNW
Pressure: 29.91"   Gusts: 21mph
Location:  38.75°N, 75.19°W
Report Text: KGED 241454Z AUTO 33008G18KT 300V360 10SM BKN038 16/07 A2991 RMK AO2 SLP128 T01610072 51006
Loading
Personal Weather Stations






























Interactive Weather Map
Tropical Storm Tracking
New forecast layout! Learn more

10-Day Weather Forecast

Advertisements
Track Severe Weather on mobile